Country
Station

 

Weather  for  Kristianstad/Everod  -  Sweden    Sweden

  
18 °C (64 °F)
    
 
 

Current METAR for Kristianstad/Everod is :

ESMK 201950Z AUTO 28004KT 250V310 9999 FEW024/// SCT030/// 18/16 Q1010

 

This is a report for Kristianstad/Everod - Sweden.
 
The report was made 35 minutes ago, at 19:50 UTC .
The wind was blowing at a speed of 2.1 meters per second (4.6 miles per hour) from west (280°), varying between west/southwest (250°) and northwest (310°).
 
The temperature was 18 °C (64 °F), with a dew-point at 16 °C (61 °F).
The atmospheric pressure was 1010 hPa (29.83 inHg).
The relative humidity was 88.1%.
 
The overall visibility was greater than 10 kilometers (6.2 miles).
 

 
 
 
 

Country :   A   B   C   D   E   F   G   H   I   J   K   L   M   N   O   P   Q   R   S   T   U   V   W   Y   Z

 

Site Info  |  Disclaimer  |  Credits  |  Privacy
Contact us  |  Add to favorites
© 2013-2019 METARs - All rights reserved